Nearby METAR Reports

 

KIAG - Niagara Falls, New York, USA
Distance from station: W 12mi, 20km
Updated: 12/06/2019 2:53am
Overcast
Overcast
 Wind from SE
Wind: SE 6 mph , 9 km/h
Temperature: 30°F , -1°C
Wind Chill: 24°F , -4°C
Dew Point: 25°F , -4°C
Humidity: 80%
Barometer: 1015.9 hPa
Clouds: Overcast
Visibility: 10 miles , 16 km
Cloud details: Mostly cloudy 3700 ft
Overcast 6000 ft
2019/12/06 07:53 KIAG 060753Z AUTO 13005KT 10SM BKN037 OVC060 M01/M04 A3000 RMK AO2 SLP174 T10111044
KBUF - Buffalo/Cheektow, New York, USA
Distance from station: S 13mi, 21km
Updated: 12/06/2019 2:54am
Light snow, Overcast
Light snow, Overcast
 Wind from ESE
Wind: ESE 6 mph , 9 km/h
Temperature: 30°F , -1°C
Wind Chill: 24°F , -4°C
Dew Point: 25°F , -4°C
Humidity: 80%
Barometer: 1015.9 hPa
Summary: Light Snow
Clouds: Overcast
Visibility: 9 miles , 14 km
Cloud details: Overcast 6500 ft
2019/12/06 07:54 KBUF 060754Z 11005KT 9SM -SN OVC065 M01/M04 A3000 RMK AO2 SNB49 SLP170 P0000 T10061039 $
 
KROC - Rochester, New York, USA
Distance from station: E 51mi, 82km
Updated: 12/06/2019 2:54am
Light snow, Overcast
Light snow, Overcast
 Wind from SW
Wind: SW 5 mph , 7 km/h
Temperature: 30°F , -1°C
Wind Chill: 25°F , -4°C
Dew Point: 23°F , -5°C
Humidity: 75%
Barometer: 1017.3 hPa
Summary: Light Snow
Clouds: Overcast
Visibility: 10 miles , 16 km
Cloud details: Mostly cloudy 3600 ft
Overcast 7000 ft
2019/12/06 07:54 KROC 060754Z 22004KT 10SM -SN BKN036 OVC070 M01/M05 A3004 RMK AO2 SNB52 SLP182 P0000 T10111050 $
CYSN - St. Catharines A, Ontario, Canada
Distance from station: WNW 25mi, 40km
Updated: 12/05/2019 9:00pm
NOT Current
Mostly cloudy
Mostly cloudy
 Wind from WSW
Wind: WSW 10 mph , 17 km/h
Temperature: 32°F , 0°C
Wind Chill: 24°F , -4°C
Dew Point: 25°F , -4°C
Humidity: 75%
Barometer: 1017.9 hPa
Clouds: Mostly cloudy
Visibility: 15 miles , 24 km
Cloud details: Mostly cloudy 3700 ft
2019/12/06 02:00 CYSN 060200Z 24009KT 15SM BKN037 00/M04 A3006 RMK SC7 LAST STFD OBS/NEXT 061200 UTC SLP185
 
KOLE - Olean, New York, USA
Distance from station: SSE 63mi, 102km
Updated: 12/06/2019 2:55am
Overcast
Overcast
 Wind from calm
Wind: Calm
Temperature: 27°F , -3°C
Dew Point: 27°F , -3°C
Humidity: 100%
Barometer: 1014.9 hPa
Clouds: Overcast
Visibility: 10 miles , 16 km
Cloud details: Overcast 5500 ft
2019/12/06 07:55 KOLE 060755Z AUTO 00000KT 10SM OVC055 M03/M03 A2997 RMK AO2
KJHW - Jamestown, New York, USA
Distance from station: SSW 74mi, 119km
Updated: 12/06/2019 2:56am
Overcast
Overcast
 Wind from S
Wind: S 5 mph , 7 km/h
Temperature: 27°F , -3°C
Wind Chill: 21°F , -6°C
Dew Point: 25°F , -4°C
Humidity: 93%
Barometer: 1015.2 hPa
Clouds: Overcast
Visibility: 10 miles , 16 km
Cloud details: Overcast 6000 ft
2019/12/06 07:56 KJHW 060756Z AUTO 18004KT 10SM OVC060 M03/M04 A2998 RMK AO2 SLP179 T10281039 FZRANO
 
CWWZ - Port Weller (mar, Ontario, Canada
Distance from station: WNW 28mi, 45km
Updated: 12/06/2019 3:00am

 Wind from SE
Wind: SE 5 mph , 7 km/h
Temperature: 34°F , 1°C
Wind Chill: 29°F , -2°C
Dew Point: 27°F , -3°C
Humidity: 75%
2019/12/06 08:00 CWWZ 060800Z AUTO 14004KT 01/M03 RMK AO1 SLP164 T00081034 58016
CWPC - Port Colborne(Au, Ontario, Canada
Distance from station: WSW 33mi, 53km
Updated: 12/06/2019 3:00am

 Wind from SSW
Wind: SSW 14 mph , 22 km/h
Temperature: 37°F , 3°C
Wind Chill: 28°F , -2°C
Dew Point: 30°F , -1°C
Humidity: 75%
2019/12/06 08:00 CWPC 060800Z AUTO 20012KT 03/M01 RMK AO1 SLP163 T00261014 56021
 
CXVN - Vineland (au8), Ontario, Canada
Distance from station: W 36mi, 58km
Updated: 12/06/2019 3:00am

 Wind from SE
Wind: SE 2 mph , 4 km/h
Temperature: 32°F , 0°C
Dew Point: 25°F , -4°C
Humidity: 75%
2019/12/06 08:00 CXVN 060800Z AUTO 13002KT 00/M04 RMK AO1 SLP164 T00001039 58017
CYTZ - Toronto Il Vor, Ontario, Canada
Distance from station: NW 50mi, 81km
Updated: 12/06/2019 3:00am
Light snow, Overcast
Light snow, Overcast
 Wind from WSW
Wind: WSW 7 mph , 11 km/h
Temperature: 32°F , 0°C
Wind Chill: 25°F , -4°C
Dew Point: 28°F , -2°C
Humidity: 87%
Barometer: 1016.3 hPa
Summary: Light Snow
Clouds: Overcast
Visibility: 9 miles , 14 km
Cloud details: Few Clouds 2000 ft
Overcast 4000 ft
2019/12/06 08:00 CYTZ 060800Z AUTO 25006KT 9SM -SN FEW020 OVC040 00/M02 A3001 RMK SLP165
 
CXTO - Toronto City, Ontario, Canada
Distance from station: NW 52mi, 84km
Updated: 12/06/2019 3:00am

 
Temperature: 32°F , 0°C
Dew Point: 25°F , -4°C
Humidity: 75%
2019/12/06 08:00 CXTO 060800Z AUTO M00/M04 RMK AO1 SOG 05 6012 SLP166 T10011041
KDKK - Dunkirk, New York, USA
Distance from station: SW 52mi, 84km
Updated: 12/06/2019 2:53am
Overcast
Overcast
 Wind from S
Wind: S 9 mph , 15 km/h
Temperature: 36°F , 2°C
Wind Chill: 29°F , -2°C
Dew Point: 27°F , -3°C
Humidity: 70%
Barometer: 1016.3 hPa
Clouds: Overcast
Visibility: 10 miles , 16 km
Cloud details: Overcast 6000 ft
2019/12/06 07:53 KDKK 060753Z AUTO 19008KT 10SM OVC060 02/M03 A3001 RMK AO2 SLP168 T00171033
 
CYOO - Oshawa, Ontario, Canada
Distance from station: N 56mi, 90km
Updated: 12/06/2019 3:00am
Overcast
Overcast
 Wind from NNE
Wind: NNE 3 mph , 6 km/h
Temperature: 27°F , -3°C
Dew Point: 25°F , -4°C
Humidity: 93%
Barometer: 1015.6 hPa
Clouds: Overcast
Visibility: 9 miles , 14 km
Cloud details: Mostly cloudy 4800 ft
Overcast 8000 ft
2019/12/06 08:00 CYOO 060800Z AUTO 03003KT 9SM BKN048 OVC080 M03/M04 A2999 RMK SLP165
CWWB - Burlington Piers, Ontario, Canada
Distance from station: WNW 56mi, 91km
Updated: 12/06/2019 3:00am

 Wind from SSE
Wind: SSE 3 mph , 6 km/h
Temperature: 34°F , 1°C
Dew Point: 25°F , -4°C
Humidity: 70%
2019/12/06 08:00 CWWB 060800Z AUTO 15003KT 01/M04 RMK AO1 SLP157 T00101042 58019
 
CYYZ - Toronto/Pearson, Ontario, Canada
Distance from station: NW 60mi, 96km
Updated: 12/06/2019 3:00am
Light snow, Overcast
Light snow, Overcast
 Wind from S
Wind: S 9 mph , 15 km/h
Temperature: 30°F , -1°C
Wind Chill: 22°F , -6°C
Dew Point: 25°F , -4°C
Humidity: 80%
Barometer: 1015.6 hPa
Summary: Light Snow
Clouds: Overcast
Visibility: 6 miles , 10 km
Cloud details: Few Clouds 1500 ft
Overcast 3200 ft
2019/12/06 08:00 CYYZ 060800Z 17008KT 6SM -SN FEW015 OVC032 M01/M04 A2999 RMK SC2SC6 SLP163
CYKZ - Toronto Buttonvi, Ontario, Canada
Distance from station: NW 62mi, 99km
Updated: 01/03/2019 4:00am
NOT Current
Partly cloudy
Partly cloudy
 Wind from WSW
Wind: WSW 5 mph , 7 km/h
Temperature: 27°F , -3°C
Wind Chill: 21°F , -6°C
Dew Point: 23°F , -5°C
Humidity: 86%
Barometer: 1010.8 hPa
Clouds: Partly cloudy
Visibility: 15 miles , 24 km
Cloud details: Partly cloudy 4000 ft
2019/01/03 09:00 CYKZ 030900Z 25004KT 15SM SCT040 M03/M05 A2985 RMK SC3 LAST STFD OBS FAREWELL SLP118
 
CXHM - Hamilton Rbg Cs, Ontario, Canada
Distance from station: W 62mi, 100km
Updated: 12/06/2019 3:00am

 Wind from N
Wind: N 1 mph , 2 km/h
2019/12/06 08:00 CXHM 060800Z AUTO 01001KT RMK AO1 56019
KDSV - Dansville, New York, USA
Distance from station: SE 62mi, 100km
Updated: 12/06/2019 2:54am
Overcast
Overcast
 Wind from SSE
Wind: SSE 5 mph , 7 km/h
Temperature: 32°F , 0°C
Wind Chill: 27°F , -3°C
Dew Point: 27°F , -3°C
Humidity: 80%
Barometer: 1017.3 hPa
Clouds: Overcast
Visibility: 10 miles , 16 km
Cloud details: Mostly cloudy 3900 ft
Overcast 7000 ft
2019/12/06 07:54 KDSV 060754Z AUTO 15004KT 10SM BKN039 OVC070 00/M03 A3004 RMK AO2 SLP189 T00001033
 
CYHM - Hamilton Airport, Ontario, Canada
Distance from station: W 63mi, 101km
Updated: 12/06/2019 3:00am
Light snow, Overcast
Light snow, Overcast
 Wind from SE
Wind: SE 6 mph , 9 km/h
Temperature: 30°F , -1°C
Wind Chill: 24°F , -4°C
Dew Point: 25°F , -4°C
Humidity: 80%
Barometer: 1014.9 hPa
Summary: Light Snow
Clouds: Overcast
Visibility: 15 miles , 24 km
Cloud details: Mostly cloudy 1700 ft
Mostly cloudy 4200 ft
Overcast 5800 ft
2019/12/06 08:00 CYHM 060800Z 13005KT 15SM -SN BKN017 BKN042 OVC058 M01/M04 A2997 RMK CF5SC2SC1 SLP159
CWNC - Cobourg (mars), Ontario, Canada
Distance from station: NNE 63mi, 102km
Updated: 12/06/2019 3:00am

 Wind from N
Wind: N 2 mph , 4 km/h
Temperature: 28°F , -2°C
Dew Point: 23°F , -5°C
Humidity: 80%
2019/12/06 08:00 CWNC 060800Z AUTO 36002KT M02/M05 RMK AO1 SOG 04 6011 SLP169 T10161050